Time;durP1;ratioP1;P1;durP2;ratioP2;P2;SDS_P1;SDS_P2;PMS_P1;PMS_P2;Temp;Humidity;BMP_temperature;BMP_pressure;BME280_temperature;BME280_humidity;BME280_pressure;Samples;Min_cycle;Max_cycle;Signal;HPM_P1;HPM_P2
2022/05/17 00:01:52;;;;;;;22.25;5.50;;;;;;;;;;4993719;28;20979;-67
2022/05/17 00:04:18;;;;;;;22.85;5.10;;;;;;;;;;4992634;28;20052;-66
2022/05/17 00:06:43;;;;;;;20.88;4.85;;;;;;;;;;4993461;28;20458;-66
2022/05/17 00:09:11;;;;;;;24.17;5.30;;;;;;;;;;4994324;28;20044;-67
2022/05/17 00:11:36;;;;;;;21.90;5.40;;;;;;;;;;4991601;28;20037;-69
2022/05/17 00:14:03;;;;;;;23.30;5.53;;;;;;;;;;4992470;28;20061;-69
2022/05/17 00:16:31;;;;;;;26.30;5.35;;;;;;;;;;4994036;28;20084;-67
2022/05/17 00:18:57;;;;;;;33.35;6.03;;;;;;;;;;5001108;28;20053;-66
2022/05/17 00:21:22;;;;;;;25.70;5.38;;;;;;;;;;5008263;28;20778;-68
2022/05/17 00:23:47;;;;;;;23.90;5.80;;;;;;;;;;4993396;28;20029;-65
2022/05/17 00:26:13;;;;;;;22.55;5.40;;;;;;;;;;4993647;28;20053;-69
2022/05/17 00:28:39;;;;;;;25.05;5.18;;;;;;;;;;4994088;28;20030;-69
2022/05/17 00:31:06;;;;;;;18.60;5.10;;;;;;;;;;4994038;28;20037;-66
2022/05/17 00:33:32;;;;;;;25.88;5.32;;;;;;;;;;4993597;28;20836;-69
2022/05/17 00:35:57;;;;;;;18.42;5.75;;;;;;;;;;4993906;28;20532;-66
2022/05/17 00:38:25;;;;;;;21.13;5.75;;;;;;;;;;4992867;28;21163;-67
2022/05/17 00:40:53;;;;;;;26.23;5.72;;;;;;;;;;4993866;28;22246;-67
2022/05/17 00:46:33;;;;;;;19.52;5.60;;;;;;;;;;4993452;28;21041;-67
2022/05/17 00:48:58;;;;;;;21.63;5.25;;;;;;;;;;4990343;28;20033;-66
2022/05/17 00:51:28;;;;;;;23.98;6.00;;;;;;;;;;4992800;28;20803;-70
2022/05/17 00:54:00;;;;;;;25.02;5.93;;;;;;;;;;4992930;28;20033;-70
2022/05/17 00:56:26;;;;;;;27.77;6.38;;;;;;;;;;4992725;28;20029;-69
2022/05/17 00:58:54;;;;;;;29.95;6.65;;;;;;;;;;4991858;28;20042;-69
2022/05/17 01:01:20;;;;;;;31.83;6.05;;;;;;;;;;4990961;28;20133;-69
2022/05/17 01:04:03;;;;;;;21.77;5.93;;;;;;;;;;4990195;28;20041;-69
2022/05/17 01:06:31;;;;;;;23.85;5.78;;;;;;;;;;4992663;28;20699;-70
2022/05/17 01:08:56;;;;;;;28.13;6.30;;;;;;;;;;4990510;28;20041;-69
2022/05/17 01:11:22;;;;;;;28.98;6.15;;;;;;;;;;4984472;28;20033;-69
2022/05/17 01:16:32;;;;;;;27.45;6.57;;;;;;;;;;4992198;28;20053;-69
2022/05/17 01:18:57;;;;;;;24.35;5.68;;;;;;;;;;4992546;28;20865;-68
2022/05/17 01:21:25;;;;;;;26.80;5.82;;;;;;;;;;4986377;28;20622;-69
2022/05/17 01:23:50;;;;;;;26.75;6.10;;;;;;;;;;5005432;28;20057;-69
2022/05/17 01:26:17;;;;;;;23.67;5.95;;;;;;;;;;4992720;28;20110;-68
2022/05/17 01:28:43;;;;;;;22.70;6.47;;;;;;;;;;5006974;28;20639;-68
2022/05/17 01:31:08;;;;;;;23.02;6.03;;;;;;;;;;4987012;28;20172;-68
2022/05/17 01:33:35;;;;;;;32.65;6.40;;;;;;;;;;4992031;28;20037;-68
2022/05/17 01:36:01;;;;;;;33.55;6.25;;;;;;;;;;4994001;28;20964;-69
2022/05/17 01:38:27;;;;;;;27.00;5.80;;;;;;;;;;5005746;28;20176;-69
2022/05/17 01:40:53;;;;;;;22.23;5.78;;;;;;;;;;4945408;28;20065;-69
2022/05/17 01:43:18;;;;;;;22.65;6.05;;;;;;;;;;4971762;28;20049;-69
2022/05/17 01:45:46;;;;;;;30.92;6.32;;;;;;;;;;4969149;28;22241;-68
2022/05/17 01:48:11;;;;;;;21.88;6.30;;;;;;;;;;4971318;28;20030;-68
2022/05/17 01:50:37;;;;;;;24.33;5.75;;;;;;;;;;4962117;28;20042;-68
2022/05/17 01:53:03;;;;;;;29.73;6.05;;;;;;;;;;4970441;28;20033;-68
2022/05/17 01:55:28;;;;;;;29.75;6.15;;;;;;;;;;4971774;28;20208;-68
2022/05/17 01:57:53;;;;;;;24.70;5.70;;;;;;;;;;4970716;28;20034;-68
2022/05/17 02:00:21;;;;;;;29.33;5.80;;;;;;;;;;4972699;28;20034;-68
2022/05/17 02:02:46;;;;;;;26.80;6.70;;;;;;;;;;4971784;28;20030;-69
2022/05/17 02:05:12;;;;;;;35.45;6.78;;;;;;;;;;4971078;28;20041;-69
2022/05/17 02:07:37;;;;;;;28.13;6.55;;;;;;;;;;4970222;28;20041;-70
2022/05/17 02:10:03;;;;;;;33.22;7.20;;;;;;;;;;4969593;28;20656;-68
2022/05/17 02:12:28;;;;;;;34.22;6.43;;;;;;;;;;4960719;28;20034;-69
2022/05/17 02:14:54;;;;;;;23.80;6.30;;;;;;;;;;4971878;28;20066;-67
2022/05/17 02:17:19;;;;;;;31.60;6.93;;;;;;;;;;4970034;28;20060;-69
2022/05/17 02:19:45;;;;;;;22.45;5.57;;;;;;;;;;4971480;28;20069;-69
2022/05/17 02:22:12;;;;;;;22.02;6.32;;;;;;;;;;4972049;28;20033;-68
2022/05/17 02:24:40;;;;;;;23.25;5.75;;;;;;;;;;4973170;28;20057;-68
2022/05/17 02:27:08;;;;;;;24.90;5.70;;;;;;;;;;4970936;28;20961;-69
2022/05/17 02:29:33;;;;;;;20.40;5.88;;;;;;;;;;4971968;28;20042;-69
2022/05/17 02:31:58;;;;;;;18.05;5.72;;;;;;;;;;4972722;28;20705;-69
2022/05/17 02:34:24;;;;;;;28.27;5.85;;;;;;;;;;4971448;28;20107;-69
2022/05/17 02:36:49;;;;;;;28.98;6.15;;;;;;;;;;4972500;28;20034;-68
2022/05/17 02:39:15;;;;;;;21.70;6.18;;;;;;;;;;4968206;28;20044;-62
2022/05/17 02:41:40;;;;;;;17.88;5.78;;;;;;;;;;4973961;28;20160;-62
2022/05/17 02:44:06;;;;;;;25.45;6.10;;;;;;;;;;4975435;28;20108;-64
2022/05/17 02:46:32;;;;;;;25.83;6.15;;;;;;;;;;4978003;28;20033;-64
2022/05/17 02:48:57;;;;;;;23.52;5.60;;;;;;;;;;4995785;28;20766;-63
2022/05/17 02:51:23;;;;;;;18.67;5.88;;;;;;;;;;4996047;28;20032;-63
2022/05/17 02:53:48;;;;;;;23.27;6.30;;;;;;;;;;4995322;28;20707;-62
2022/05/17 02:56:14;;;;;;;26.20;6.35;;;;;;;;;;4998221;28;20387;-63
2022/05/17 02:58:39;;;;;;;23.75;5.70;;;;;;;;;;4994605;28;20040;-64
2022/05/17 03:01:05;;;;;;;31.48;6.43;;;;;;;;;;4971361;28;20034;-63
2022/05/17 03:03:30;;;;;;;26.52;6.30;;;;;;;;;;4995560;28;20030;-62
2022/05/17 03:05:56;;;;;;;27.10;6.35;;;;;;;;;;4992444;28;20156;-63
2022/05/17 03:08:22;;;;;;;27.13;5.88;;;;;;;;;;4986316;28;20052;-62
2022/05/17 03:10:47;;;;;;;20.52;5.60;;;;;;;;;;4992394;28;20044;-62
2022/05/17 03:13:14;;;;;;;20.55;5.75;;;;;;;;;;4992523;28;20905;-63
2022/05/17 03:15:39;;;;;;;19.60;5.75;;;;;;;;;;4997562;28;20037;-62
2022/05/17 03:18:07;;;;;;;19.80;5.15;;;;;;;;;;4994812;28;20123;-63
2022/05/17 03:20:36;;;;;;;23.75;6.20;;;;;;;;;;4993004;28;20109;-62
2022/05/17 03:23:01;;;;;;;14.57;5.25;;;;;;;;;;4992001;28;22360;-62
2022/05/17 03:25:26;;;;;;;25.00;5.88;;;;;;;;;;4990402;28;20053;-63
2022/05/17 03:27:53;;;;;;;21.85;5.43;;;;;;;;;;4993179;28;21513;-63
2022/05/17 03:30:18;;;;;;;20.80;6.20;;;;;;;;;;4992973;28;20079;-62
2022/05/17 03:32:44;;;;;;;22.30;6.82;;;;;;;;;;4992695;28;20040;-63
2022/05/17 03:35:09;;;;;;;25.75;6.32;;;;;;;;;;4991316;28;20033;-64
2022/05/17 03:37:35;;;;;;;22.35;6.00;;;;;;;;;;4995401;28;20030;-62
2022/05/17 03:40:01;;;;;;;22.45;5.78;;;;;;;;;;4993249;28;20041;-63
2022/05/17 03:42:28;;;;;;;22.83;6.47;;;;;;;;;;4993694;28;20916;-64
2022/05/17 03:44:53;;;;;;;27.48;5.85;;;;;;;;;;4992500;28;20144;-64
2022/05/17 03:47:18;;;;;;;19.85;5.68;;;;;;;;;;4984774;28;20055;-62
2022/05/17 03:49:43;;;;;;;25.60;6.40;;;;;;;;;;4991882;28;20047;-63
2022/05/17 03:52:09;;;;;;;26.23;5.90;;;;;;;;;;4987996;28;20037;-63
2022/05/17 03:54:35;;;;;;;22.25;5.20;;;;;;;;;;4993069;28;20042;-64
2022/05/17 03:57:01;;;;;;;17.60;5.63;;;;;;;;;;4980714;28;20038;-62
2022/05/17 03:59:26;;;;;;;16.85;5.65;;;;;;;;;;4973453;28;20037;-62
2022/05/17 04:01:54;;;;;;;21.48;5.75;;;;;;;;;;4973991;28;20154;-63
2022/05/17 04:04:19;;;;;;;20.45;5.75;;;;;;;;;;4972402;28;20892;-63
2022/05/17 04:06:46;;;;;;;22.70;5.63;;;;;;;;;;4970662;28;20025;-65
2022/05/17 04:09:11;;;;;;;17.83;5.63;;;;;;;;;;4972388;28;20085;-63
2022/05/17 04:11:39;;;;;;;17.02;5.57;;;;;;;;;;4970498;28;20034;-64
2022/05/17 04:14:05;;;;;;;17.75;5.57;;;;;;;;;;4970980;28;20109;-65
2022/05/17 04:16:34;;;;;;;24.30;6.32;;;;;;;;;;4977675;28;20101;-62
2022/05/17 04:19:00;;;;;;;29.23;7.05;;;;;;;;;;4973442;28;20040;-64
2022/05/17 04:21:28;;;;;;;21.85;6.30;;;;;;;;;;4973639;28;20092;-63
2022/05/17 04:23:54;;;;;;;27.67;5.90;;;;;;;;;;4972978;28;20140;-63
2022/05/17 04:26:19;;;;;;;27.73;6.60;;;;;;;;;;4973561;28;20055;-63
2022/05/17 04:28:47;;;;;;;25.75;6.93;;;;;;;;;;4972833;28;20092;-63
2022/05/17 04:31:12;;;;;;;21.65;5.65;;;;;;;;;;4963626;28;20033;-68
2022/05/17 04:33:37;;;;;;;24.17;5.95;;;;;;;;;;4975126;28;20128;-66
2022/05/17 04:36:05;;;;;;;28.55;5.38;;;;;;;;;;4970092;28;20072;-66
2022/05/17 04:38:30;;;;;;;18.05;5.18;;;;;;;;;;4963308;28;20116;-68
2022/05/17 04:40:56;;;;;;;20.58;5.40;;;;;;;;;;4981745;28;20034;-67
2022/05/17 04:43:21;;;;;;;23.90;4.85;;;;;;;;;;4972328;28;20034;-66
2022/05/17 04:45:46;;;;;;;22.70;4.90;;;;;;;;;;4970091;28;20046;-67
2022/05/17 04:48:12;;;;;;;22.25;5.22;;;;;;;;;;4943472;28;20087;-66
2022/05/17 04:50:37;;;;;;;17.95;4.53;;;;;;;;;;4973397;28;20045;-66
2022/05/17 04:53:03;;;;;;;20.23;4.20;;;;;;;;;;4970187;28;20042;-67
2022/05/17 04:55:28;;;;;;;20.00;4.22;;;;;;;;;;4970418;28;20033;-66
2022/05/17 04:57:54;;;;;;;19.35;4.47;;;;;;;;;;4970180;28;20136;-67
2022/05/17 05:00:21;;;;;;;19.00;3.70;;;;;;;;;;4971564;28;20204;-66
2022/05/17 05:02:46;;;;;;;15.88;4.00;;;;;;;;;;4977253;28;20033;-65
2022/05/17 05:05:13;;;;;;;12.40;3.85;;;;;;;;;;4952950;28;20054;-67
2022/05/17 05:07:38;;;;;;;20.25;3.78;;;;;;;;;;4972930;28;20037;-64
2022/05/17 05:10:04;;;;;;;19.95;3.90;;;;;;;;;;4968832;28;20037;-64
2022/05/17 05:12:31;;;;;;;19.60;4.05;;;;;;;;;;4964855;28;20115;-62
2022/05/17 05:14:56;;;;;;;19.42;3.35;;;;;;;;;;4977955;28;20036;-62
2022/05/17 05:17:22;;;;;;;16.05;3.28;;;;;;;;;;4985526;28;20041;-63
2022/05/17 05:19:47;;;;;;;17.23;3.08;;;;;;;;;;4987217;28;20056;-63
2022/05/17 05:22:13;;;;;;;17.73;3.28;;;;;;;;;;4989048;28;20131;-63
2022/05/17 05:24:38;;;;;;;18.75;3.33;;;;;;;;;;4989211;28;20052;-63
2022/05/17 05:27:07;;;;;;;20.23;4.03;;;;;;;;;;4988735;28;20045;-65
2022/05/17 05:29:33;;;;;;;14.77;3.58;;;;;;;;;;4984909;28;21989;-63
2022/05/17 05:31:58;;;;;;;24.08;3.78;;;;;;;;;;4986196;28;20287;-63
2022/05/17 05:34:24;;;;;;;21.63;3.85;;;;;;;;;;4974345;28;20037;-63
2022/05/17 05:36:50;;;;;;;15.30;3.05;;;;;;;;;;4959140;28;20449;-64
2022/05/17 05:39:16;;;;;;;20.63;6.00;;;;;;;;;;4964585;28;20219;-65
2022/05/17 05:41:41;;;;;;;16.38;4.95;;;;;;;;;;4963894;28;20045;-63
2022/05/17 05:44:07;;;;;;;13.68;3.63;;;;;;;;;;4965769;28;20624;-62
2022/05/17 05:46:32;;;;;;;14.77;3.05;;;;;;;;;;4960137;28;20635;-65
2022/05/17 05:48:58;;;;;;;9.20;2.80;;;;;;;;;;4954745;28;20045;-68
2022/05/17 05:51:24;;;;;;;14.52;3.03;;;;;;;;;;4970865;28;20745;-63
2022/05/17 05:53:52;;;;;;;12.70;2.80;;;;;;;;;;4985853;28;20037;-68
2022/05/17 05:56:17;;;;;;;10.32;2.83;;;;;;;;;;4989336;28;20224;-69
2022/05/17 05:58:45;;;;;;;12.32;2.88;;;;;;;;;;4978760;28;20049;-64
2022/05/17 06:01:10;;;;;;;13.75;2.70;;;;;;;;;;4981470;28;20041;-63
2022/05/17 06:03:38;;;;;;;10.73;2.80;;;;;;;;;;4999703;28;20033;-62
2022/05/17 06:06:04;;;;;;;10.27;2.75;;;;;;;;;;4982849;28;20049;-64
2022/05/17 06:08:30;;;;;;;14.13;2.97;;;;;;;;;;4964337;28;20145;-63
2022/05/17 06:10:56;;;;;;;12.32;2.55;;;;;;;;;;4971755;28;20124;-64
2022/05/17 06:13:22;;;;;;;11.40;2.55;;;;;;;;;;4981737;28;20214;-63
2022/05/17 06:15:47;;;;;;;13.40;2.58;;;;;;;;;;4984215;28;20129;-65
2022/05/17 06:18:13;;;;;;;11.23;2.38;;;;;;;;;;4985699;28;20044;-63
2022/05/17 06:20:39;;;;;;;12.60;2.75;;;;;;;;;;4984632;28;22415;-68
2022/05/17 06:23:08;;;;;;;10.98;2.47;;;;;;;;;;4984603;28;20057;-64
2022/05/17 06:25:34;;;;;;;12.07;2.60;;;;;;;;;;4986268;28;20733;-63
2022/05/17 06:28:00;;;;;;;12.55;2.38;;;;;;;;;;4987949;28;20247;-63
2022/05/17 06:30:25;;;;;;;8.27;2.17;;;;;;;;;;4986781;28;20048;-68
2022/05/17 06:32:51;;;;;;;12.32;2.40;;;;;;;;;;4987670;28;20129;-65
2022/05/17 06:35:16;;;;;;;9.30;2.25;;;;;;;;;;4987407;28;20029;-64
2022/05/17 06:37:45;;;;;;;12.88;2.40;;;;;;;;;;4987895;28;20091;-65
2022/05/17 06:40:11;;;;;;;9.60;2.10;;;;;;;;;;5003565;28;20073;-66
2022/05/17 06:42:37;;;;;;;12.00;2.35;;;;;;;;;;4987688;28;20039;-66
2022/05/17 06:45:03;;;;;;;10.93;2.33;;;;;;;;;;4980999;28;20214;-64
2022/05/17 06:47:28;;;;;;;11.15;2.38;;;;;;;;;;4997992;28;20063;-70
2022/05/17 06:49:53;;;;;;;10.80;3.03;;;;;;;;;;4970740;28;20295;-71
2022/05/17 06:52:20;;;;;;;11.35;2.83;;;;;;;;;;4967528;28;20311;-70
2022/05/17 06:54:49;;;;;;;11.88;2.95;;;;;;;;;;4969699;28;20034;-71
2022/05/17 06:57:19;;;;;;;11.35;2.60;;;;;;;;;;4989244;28;20037;-71
2022/05/17 06:59:45;;;;;;;10.73;2.50;;;;;;;;;;4976506;28;20034;-70
2022/05/17 07:02:11;;;;;;;11.63;2.72;;;;;;;;;;4967677;28;20103;-70
2022/05/17 07:04:36;;;;;;;15.70;2.85;;;;;;;;;;4964266;28;20050;-72
2022/05/17 07:07:03;;;;;;;17.95;3.05;;;;;;;;;;4964790;28;20034;-71
2022/05/17 07:09:28;;;;;;;12.77;2.70;;;;;;;;;;4965419;28;20046;-71
2022/05/17 07:14:40;;;;;;;11.23;2.67;;;;;;;;;;4964098;28;20136;-71
2022/05/17 07:17:26;;;;;;;12.20;2.50;;;;;;;;;;4964961;28;20038;-71
2022/05/17 07:19:51;;;;;;;14.77;2.45;;;;;;;;;;4981113;28;20067;-72
2022/05/17 07:22:23;;;;;;;10.65;2.50;;;;;;;;;;4986870;28;20538;-71
2022/05/17 07:24:48;;;;;;;8.95;2.00;;;;;;;;;;4986275;28;20634;-69
2022/05/17 07:27:13;;;;;;;10.15;2.28;;;;;;;;;;4986434;28;20048;-68
2022/05/17 07:29:39;;;;;;;7.95;2.13;;;;;;;;;;4988013;28;20021;-71
2022/05/17 07:32:04;;;;;;;8.60;2.17;;;;;;;;;;4994951;28;20037;-71
2022/05/17 07:34:30;;;;;;;9.32;2.20;;;;;;;;;;5005379;28;20048;-71
2022/05/17 07:36:55;;;;;;;8.90;2.42;;;;;;;;;;4984664;28;20037;-68
2022/05/17 07:39:20;;;;;;;13.00;2.33;;;;;;;;;;4972877;28;20065;-69
2022/05/17 07:41:47;;;;;;;13.93;2.83;;;;;;;;;;4991060;28;20062;-70
2022/05/17 07:44:12;;;;;;;10.75;2.50;;;;;;;;;;4998235;28;20037;-70
2022/05/17 07:46:37;;;;;;;11.70;2.47;;;;;;;;;;5003238;28;20124;-70
2022/05/17 07:49:03;;;;;;;10.35;2.53;;;;;;;;;;5004609;28;20229;-70
2022/05/17 07:51:28;;;;;;;9.82;2.42;;;;;;;;;;5005116;28;20029;-70
2022/05/17 07:53:54;;;;;;;10.38;2.80;;;;;;;;;;4991735;28;20156;-70
2022/05/17 07:56:20;;;;;;;13.20;2.60;;;;;;;;;;4983438;28;20037;-70
2022/05/17 07:58:48;;;;;;;11.38;2.70;;;;;;;;;;4993984;28;20121;-70
2022/05/17 08:01:13;;;;;;;12.75;2.30;;;;;;;;;;4987697;28;20120;-70
2022/05/17 08:03:38;;;;;;;11.55;2.80;;;;;;;;;;4986154;28;20039;-70
2022/05/17 08:06:05;;;;;;;10.15;2.20;;;;;;;;;;4993296;28;20152;-71
2022/05/17 08:08:30;;;;;;;10.65;2.53;;;;;;;;;;4986728;28;20037;-70
2022/05/17 08:10:55;;;;;;;10.82;2.05;;;;;;;;;;4994495;28;20072;-71
2022/05/17 08:13:24;;;;;;;10.88;2.30;;;;;;;;;;4976329;28;20071;-71
2022/05/17 08:15:51;;;;;;;7.78;2.20;;;;;;;;;;4984738;28;20056;-70
2022/05/17 08:18:17;;;;;;;13.98;2.72;;;;;;;;;;4986874;28;20098;-70
2022/05/17 08:20:42;;;;;;;11.23;2.33;;;;;;;;;;4991930;28;20034;-69
2022/05/17 08:23:08;;;;;;;7.18;1.90;;;;;;;;;;4992435;28;20061;-69
2022/05/17 08:28:22;;;;;;;11.50;2.53;;;;;;;;;;4982122;28;20049;-69
2022/05/17 08:30:50;;;;;;;9.60;2.08;;;;;;;;;;4971382;28;22356;-69
2022/05/17 08:33:17;;;;;;;9.63;1.92;;;;;;;;;;4975449;28;20081;-70
2022/05/17 08:35:44;;;;;;;14.18;2.72;;;;;;;;;;4972207;28;20038;-70
2022/05/17 08:38:11;;;;;;;11.60;2.10;;;;;;;;;;4971893;28;20038;-70
2022/05/17 08:40:46;;;;;;;6.80;2.03;;;;;;;;;;4987248;28;20037;-70
2022/05/17 08:43:38;;;;;;;16.00;2.22;;;;;;;;;;4974948;28;20029;-70
2022/05/17 08:46:33;;;;;;;8.70;1.80;;;;;;;;;;4972625;28;20155;-70
2022/05/17 08:49:01;;;;;;;11.57;2.00;;;;;;;;;;4969703;28;20044;-70
2022/05/17 08:51:45;;;;;;;8.43;1.95;;;;;;;;;;4976110;28;20147;-70
2022/05/17 08:54:16;;;;;;;12.48;2.60;;;;;;;;;;5001243;28;20103;-70
2022/05/17 08:56:44;;;;;;;9.30;2.22;;;;;;;;;;4989921;28;20598;-73
2022/05/17 08:59:12;;;;;;;10.35;1.88;;;;;;;;;;5004164;28;20913;-70
2022/05/17 09:01:44;;;;;;;7.88;1.60;;;;;;;;;;5005406;28;20041;-71
2022/05/17 09:04:17;;;;;;;11.43;2.20;;;;;;;;;;4991511;28;20057;-70
2022/05/17 09:06:52;;;;;;;10.32;2.30;;;;;;;;;;4984260;28;20041;-70
2022/05/17 09:09:24;;;;;;;8.45;2.42;;;;;;;;;;4989264;28;20106;-70
2022/05/17 09:11:57;;;;;;;9.13;2.70;;;;;;;;;;4979943;28;20037;-70
2022/05/17 09:14:35;;;;;;;11.10;2.42;;;;;;;;;;4981986;28;20124;-70
2022/05/17 09:17:08;;;;;;;9.10;2.22;;;;;;;;;;4969181;28;20041;-70
2022/05/17 09:19:34;;;;;;;11.30;2.22;;;;;;;;;;4990309;28;20111;-71
2022/05/17 09:22:00;;;;;;;9.77;2.05;;;;;;;;;;4993391;28;20047;-71
2022/05/17 09:24:35;;;;;;;8.75;1.88;;;;;;;;;;4989337;28;20056;-71
2022/05/17 09:27:11;;;;;;;11.95;1.85;;;;;;;;;;4988253;28;20029;-71
2022/05/17 09:29:45;;;;;;;11.45;2.17;;;;;;;;;;4972564;28;20089;-70
2022/05/17 09:32:11;;;;;;;10.98;2.33;;;;;;;;;;4972832;28;20042;-71
2022/05/17 09:34:42;;;;;;;7.97;1.95;;;;;;;;;;4971952;28;20038;-69
2022/05/17 09:37:10;;;;;;;8.40;1.90;;;;;;;;;;4970793;28;20152;-70
2022/05/17 09:39:38;;;;;;;11.63;1.85;;;;;;;;;;4971506;28;20034;-70
2022/05/17 09:42:05;;;;;;;10.13;1.83;;;;;;;;;;4966142;28;20692;-71
2022/05/17 09:44:33;;;;;;;10.02;1.95;;;;;;;;;;4967220;28;21818;-72
2022/05/17 09:47:04;;;;;;;11.90;2.42;;;;;;;;;;4981914;28;20037;-71
2022/05/17 09:52:35;;;;;;;8.50;1.70;;;;;;;;;;4973337;28;20037;-70
2022/05/17 09:55:08;;;;;;;10.07;1.92;;;;;;;;;;4971978;28;20045;-71
2022/05/17 09:57:36;;;;;;;10.68;2.42;;;;;;;;;;4972236;28;20099;-71
2022/05/17 10:00:12;;;;;;;13.45;2.60;;;;;;;;;;4973083;28;20037;-70
2022/05/17 10:02:48;;;;;;;11.77;2.35;;;;;;;;;;4972328;28;20074;-72
2022/05/17 10:05:16;;;;;;;10.95;1.83;;;;;;;;;;4985438;28;20095;-70
2022/05/17 10:07:43;;;;;;;10.25;2.10;;;;;;;;;;4971004;28;20037;-70
2022/05/17 10:10:21;;;;;;;9.05;1.92;;;;;;;;;;4968900;28;20030;-70
2022/05/17 10:12:51;;;;;;;12.35;2.00;;;;;;;;;;4969347;28;20129;-70
2022/05/17 10:15:19;;;;;;;11.70;2.15;;;;;;;;;;4969832;28;20033;-72
2022/05/17 10:18:00;;;;;;;9.35;2.05;;;;;;;;;;4976276;28;20040;-70
2022/05/17 10:20:44;;;;;;;9.75;2.08;;;;;;;;;;4973412;28;20126;-71
2022/05/17 10:23:30;;;;;;;9.27;2.38;;;;;;;;;;4972728;28;20036;-71
2022/05/17 10:25:59;;;;;;;9.15;1.98;;;;;;;;;;4975181;28;20042;-70
2022/05/17 10:28:37;;;;;;;11.05;2.20;;;;;;;;;;4971898;28;20750;-70
2022/05/17 10:31:12;;;;;;;12.60;2.20;;;;;;;;;;4969808;28;20120;-71
2022/05/17 10:33:54;;;;;;;11.25;2.28;;;;;;;;;;4984205;28;20179;-70
2022/05/17 10:36:25;;;;;;;8.13;1.80;;;;;;;;;;4969047;28;20068;-70
2022/05/17 10:38:53;;;;;;;10.18;2.45;;;;;;;;;;4971411;28;20029;-70
2022/05/17 10:41:18;;;;;;;11.20;2.35;;;;;;;;;;4969388;28;20496;-69
2022/05/17 10:43:48;;;;;;;9.45;2.00;;;;;;;;;;4969134;28;20049;-70
2022/05/17 10:46:18;;;;;;;11.10;2.15;;;;;;;;;;4973470;28;20053;-69
2022/05/17 10:49:02;;;;;;;11.25;2.45;;;;;;;;;;4967103;28;20052;-71
2022/05/17 10:51:38;;;;;;;9.23;2.08;;;;;;;;;;4967917;28;20333;-69
2022/05/17 10:54:04;;;;;;;9.38;2.22;;;;;;;;;;4965544;28;20145;-70
2022/05/17 10:56:48;;;;;;;8.65;2.40;;;;;;;;;;4969291;28;20051;-70
2022/05/17 10:59:13;;;;;;;8.40;2.13;;;;;;;;;;4966762;28;20521;-71
2022/05/17 11:01:43;;;;;;;10.57;1.98;;;;;;;;;;4969721;28;20186;-69
2022/05/17 11:04:59;;;;;;;7.75;2.08;;;;;;;;;;4977291;28;20514;-70
2022/05/17 11:07:27;;;;;;;11.38;2.83;;;;;;;;;;4920122;28;20045;-70
2022/05/17 11:09:52;;;;;;;8.45;2.30;;;;;;;;;;4922892;28;20031;-68
2022/05/17 11:12:22;;;;;;;10.00;2.23;;;;;;;;;;4962213;28;20839;-71
2022/05/17 11:14:52;;;;;;;13.10;2.50;;;;;;;;;;4989319;28;20270;-71
2022/05/17 11:17:36;;;;;;;11.50;2.47;;;;;;;;;;4988296;28;20034;-71
2022/05/17 11:20:04;;;;;;;11.25;2.70;;;;;;;;;;4988099;28;20091;-69
2022/05/17 11:22:32;;;;;;;11.05;2.33;;;;;;;;;;4990850;28;20037;-68
2022/05/17 11:25:06;;;;;;;8.82;2.45;;;;;;;;;;4961352;28;20057;-70
2022/05/17 11:27:38;;;;;;;9.75;2.13;;;;;;;;;;4972929;28;20149;-68
2022/05/17 11:30:15;;;;;;;8.90;2.22;;;;;;;;;;4967864;28;21839;-69
2022/05/17 11:32:42;;;;;;;9.45;2.17;;;;;;;;;;4975254;28;20046;-70
2022/05/17 11:35:28;;;;;;;10.35;2.25;;;;;;;;;;4981669;28;20130;-69
2022/05/17 11:37:54;;;;;;;11.30;2.60;;;;;;;;;;4972294;28;20424;-69
2022/05/17 11:40:38;;;;;;;10.75;2.28;;;;;;;;;;4971991;28;20084;-71
2022/05/17 11:45:50;;;;;;;11.77;2.78;;;;;;;;;;4967071;28;20065;-69
2022/05/17 11:48:20;;;;;;;11.57;2.30;;;;;;;;;;4972375;28;20137;-67
2022/05/17 11:50:52;;;;;;;13.35;3.05;;;;;;;;;;4965208;28;20566;-67
2022/05/17 11:53:17;;;;;;;;;;;;;;;;;;4972020;28;20036;-67
2022/05/17 11:56:02;;;;;;;12.82;2.83;;;;;;;;;;4967164;28;20198;-67
2022/05/17 11:58:28;;;;;;;11.63;2.55;;;;;;;;;;4963954;28;20379;-68
2022/05/17 12:00:53;;;;;;;9.30;2.78;;;;;;;;;;4979791;28;20180;-67
2022/05/17 12:03:39;;;;;;;11.85;2.80;;;;;;;;;;4969521;28;20041;-66
2022/05/17 12:06:07;;;;;;;12.55;2.53;;;;;;;;;;4966613;28;20050;-66
2022/05/17 12:08:35;;;;;;;12.18;2.63;;;;;;;;;;4969133;28;20111;-68
2022/05/17 12:11:15;;;;;;;9.65;2.38;;;;;;;;;;4981612;28;20065;-66
2022/05/17 12:13:47;;;;;;;11.40;2.35;;;;;;;;;;4967617;28;20037;-66
2022/05/17 12:16:12;;;;;;;;;;;;;;;;;;4968040;28;20318;-67
2022/05/17 12:18:40;;;;;;;10.60;2.57;;;;;;;;;;4969517;28;20476;-66
2022/05/17 12:21:20;;;;;;;11.73;2.85;;;;;;;;;;4966005;28;20042;-66
2022/05/17 12:23:58;;;;;;;11.05;2.60;;;;;;;;;;4970391;28;20073;-66
2022/05/17 12:26:32;;;;;;;11.93;2.55;;;;;;;;;;4971671;28;20607;-67
2022/05/17 12:30:52;;;;;;;13.20;2.42;;;;;;;;;;4967617;28;20405;-66
2022/05/17 12:31:45;;;;;;;14.68;2.90;;;;;;;;;;4969613;28;20687;-67
2022/05/17 12:34:11;;;;;;;11.90;2.70;;;;;;;;;;4968635;28;22281;-67
2022/05/17 12:36:38;;;;;;;11.45;2.55;;;;;;;;;;4970164;28;20072;-66
2022/05/17 12:44:41;;;;;;;10.20;2.60;;;;;;;;;;4968068;28;20517;-67
2022/05/17 12:47:09;;;;;;;17.25;2.53;;;;;;;;;;4976497;28;20038;-67
2022/05/17 12:49:34;;;;;;;9.50;2.30;;;;;;;;;;4966555;28;20075;-69
2022/05/17 12:52:13;;;;;;;12.00;2.92;;;;;;;;;;4975474;28;20029;-68
2022/05/17 12:54:41;;;;;;;12.48;2.35;;;;;;;;;;4963789;28;20472;-72
2022/05/17 12:57:16;;;;;;;8.32;2.40;;;;;;;;;;4967289;28;20267;-68
2022/05/17 12:59:41;;;;;;;11.18;2.53;;;;;;;;;;4972499;28;20124;-69
2022/05/17 13:02:07;;;;;;;11.95;2.40;;;;;;;;;;4968334;28;20165;-68
2022/05/17 13:04:34;;;;;;;13.00;2.45;;;;;;;;;;4969422;28;20234;-68
2022/05/17 13:07:13;;;;;;;12.43;2.28;;;;;;;;;;4967841;28;19964;-67
2022/05/17 13:09:58;;;;;;;13.05;2.13;;;;;;;;;;4975961;28;20072;-70
2022/05/17 13:12:26;;;;;;;11.93;2.60;;;;;;;;;;4958394;28;20033;-70
2022/05/17 13:14:54;;;;;;;13.15;2.80;;;;;;;;;;4967419;28;20474;-71
2022/05/17 13:17:19;;;;;;;12.23;2.80;;;;;;;;;;4965780;28;20351;-70
2022/05/17 13:19:46;;;;;;;10.85;2.83;;;;;;;;;;4962027;28;20402;-70
2022/05/17 13:22:12;;;;;;;14.90;3.17;;;;;;;;;;4966440;28;20107;-70
2022/05/17 13:24:46;;;;;;;10.88;2.40;;;;;;;;;;4967632;28;20438;-67
2022/05/17 13:27:14;;;;;;;14.82;2.95;;;;;;;;;;4960031;28;20044;-69
2022/05/17 13:29:43;;;;;;;12.30;2.53;;;;;;;;;;4965190;28;20040;-67
2022/05/17 13:32:17;;;;;;;14.27;2.72;;;;;;;;;;4966038;28;20805;-68
2022/05/17 13:34:45;;;;;;;16.13;2.80;;;;;;;;;;4969235;28;20533;-67
2022/05/17 13:37:18;;;;;;;16.88;3.28;;;;;;;;;;4969968;28;20041;-68
2022/05/17 13:39:48;;;;;;;15.38;2.65;;;;;;;;;;4972625;28;20140;-69
2022/05/17 13:42:22;;;;;;;14.48;2.38;;;;;;;;;;4966618;28;20156;-68
2022/05/17 13:44:52;;;;;;;17.92;3.05;;;;;;;;;;4966717;28;20045;-69
2022/05/17 13:47:21;;;;;;;13.23;2.60;;;;;;;;;;4968654;28;20034;-68
2022/05/17 13:49:47;;;;;;;11.27;2.30;;;;;;;;;;4969098;28;20029;-68
2022/05/17 13:52:24;;;;;;;13.48;2.67;;;;;;;;;;4969066;28;20270;-68
2022/05/17 13:54:50;;;;;;;13.80;2.60;;;;;;;;;;4969681;28;20579;-68
2022/05/17 13:57:33;;;;;;;10.00;2.20;;;;;;;;;;4963723;28;21114;-65
2022/05/17 14:00:00;;;;;;;10.32;2.25;;;;;;;;;;4961434;28;20448;-69
2022/05/17 14:02:40;;;;;;;14.63;2.53;;;;;;;;;;4967479;28;20248;-69
2022/05/17 14:05:10;;;;;;;16.73;2.58;;;;;;;;;;4964938;28;20201;-70
2022/05/17 14:07:36;;;;;;;12.32;2.55;;;;;;;;;;4965128;28;20347;-70
2022/05/17 14:13:21;;;;;;;11.43;2.15;;;;;;;;;;4969945;28;20034;-67
2022/05/17 14:15:48;;;;;;;10.07;2.40;;;;;;;;;;4967115;28;20041;-69
2022/05/17 14:18:26;;;;;;;9.65;2.72;;;;;;;;;;4971846;28;20162;-71
2022/05/17 14:20:52;;;;;;;8.02;2.47;;;;;;;;;;4966073;28;20042;-73
2022/05/17 14:23:20;;;;;;;11.25;2.53;;;;;;;;;;4969630;28;20064;-73
2022/05/17 14:25:46;;;;;;;10.80;2.08;;;;;;;;;;4968999;28;20042;-74
2022/05/17 14:28:11;;;;;;;8.23;2.22;;;;;;;;;;4964105;28;20187;-71
2022/05/17 14:30:37;;;;;;;9.00;2.28;;;;;;;;;;4964649;28;20033;-69
2022/05/17 14:33:05;;;;;;;12.43;2.40;;;;;;;;;;4969433;28;20044;-71
2022/05/17 14:35:31;;;;;;;7.97;2.22;;;;;;;;;;4968664;28;20048;-74
2022/05/17 14:37:56;;;;;;;11.05;2.47;;;;;;;;;;4966485;28;20694;-73
2022/05/17 14:40:22;;;;;;;10.15;2.83;;;;;;;;;;4973241;28;20502;-70
2022/05/17 14:42:50;;;;;;;10.02;2.53;;;;;;;;;;4967620;28;21705;-71
2022/05/17 14:45:17;;;;;;;13.50;2.45;;;;;;;;;;4952234;28;20111;-71
2022/05/17 14:47:47;;;;;;;8.95;3.35;;;;;;;;;;4966179;28;20042;-70
2022/05/17 14:50:20;;;;;;;9.18;3.58;;;;;;;;;;4965210;28;20770;-71
2022/05/17 14:52:48;;;;;;;10.60;7.13;;;;;;;;;;4964263;28;20125;-70
2022/05/17 14:55:14;;;;;;;12.02;5.97;;;;;;;;;;4968290;28;20042;-71
2022/05/17 14:57:43;;;;;;;11.30;6.90;;;;;;;;;;4968238;28;20173;-71
2022/05/17 15:00:13;;;;;;;12.48;7.40;;;;;;;;;;4967324;28;20964;-71
2022/05/17 15:02:40;;;;;;;12.73;6.78;;;;;;;;;;4971749;28;20038;-70
2022/05/17 15:05:09;;;;;;;13.82;6.75;;;;;;;;;;4978882;28;20636;-69
2022/05/17 15:07:38;;;;;;;13.55;7.18;;;;;;;;;;4967108;28;20216;-70